createdAt,value
2022-12-08T00:01:13.708Z,2.60
2022-12-08T00:03:40.954Z,5.50
2022-12-08T00:06:41.079Z,3.88
2022-12-08T00:09:38.663Z,3.78
2022-12-08T00:12:07.989Z,2.70
2022-12-08T00:14:37.649Z,5.22
2022-12-08T00:17:06.864Z,3.35
2022-12-08T00:19:34.290Z,3.95
2022-12-08T00:22:01.955Z,4.97
2022-12-08T00:24:35.104Z,3.55
2022-12-08T00:27:02.603Z,3.78
2022-12-08T00:29:29.781Z,4.70
2022-12-08T00:31:57.045Z,4.57
2022-12-08T00:34:24.350Z,3.28
2022-12-08T00:36:51.478Z,3.75
2022-12-08T00:39:21.768Z,3.22
2022-12-08T00:42:08.666Z,3.40
2022-12-08T00:44:35.687Z,4.18
2022-12-08T00:47:02.706Z,2.78
2022-12-08T00:49:29.743Z,3.47
2022-12-08T00:51:57.081Z,5.57
2022-12-08T00:54:24.157Z,4.22
2022-12-08T00:56:51.769Z,2.97
2022-12-08T00:59:18.832Z,4.13
2022-12-08T01:01:46.241Z,4.03
2022-12-08T01:04:16.223Z,4.13
2022-12-08T01:09:18.217Z,2.95
2022-12-08T01:11:45.720Z,1.73
2022-12-08T01:14:13.649Z,3.05
2022-12-08T01:16:41.764Z,4.22
2022-12-08T01:19:12.351Z,1.63
2022-12-08T01:21:40.251Z,4.82
2022-12-08T01:24:07.810Z,3.40
2022-12-08T01:26:34.843Z,5.00
2022-12-08T01:29:02.161Z,3.83
2022-12-08T01:31:29.175Z,3.85
2022-12-08T01:33:56.635Z,2.20
2022-12-08T01:36:29.471Z,3.40
2022-12-08T01:39:01.113Z,4.90
2022-12-08T01:41:31.810Z,5.22
2022-12-08T01:44:04.217Z,3.03
2022-12-08T01:46:33.390Z,2.33
2022-12-08T01:49:14.922Z,3.43
2022-12-08T01:51:59.232Z,4.60
2022-12-08T01:54:31.092Z,5.40
2022-12-08T01:57:34.666Z,4.60
2022-12-08T02:00:08.844Z,2.95
2022-12-08T02:03:04.811Z,4.18
2022-12-08T02:05:35.292Z,3.00
2022-12-08T02:08:07.086Z,4.78
2022-12-08T02:10:38.118Z,3.22
2022-12-08T02:13:09.123Z,3.20
2022-12-08T02:16:00.662Z,3.95
2022-12-08T02:19:22.552Z,2.58
2022-12-08T02:22:11.461Z,4.40
2022-12-08T02:24:59.378Z,2.45
2022-12-08T02:27:49.428Z,4.07
2022-12-08T02:30:39.109Z,3.97
2022-12-08T02:34:03.530Z,2.55
2022-12-08T02:36:42.651Z,3.53
2022-12-08T02:39:12.594Z,2.70
2022-12-08T02:41:53.373Z,4.15
2022-12-08T02:44:31.883Z,5.03
2022-12-08T02:47:08.737Z,4.05
2022-12-08T02:49:36.173Z,2.13
2022-12-08T02:52:27.610Z,5.85
2022-12-08T02:55:02.281Z,3.85
2022-12-08T02:57:51.960Z,3.00
2022-12-08T03:00:21.991Z,4.18
2022-12-08T03:05:56.787Z,3.65
2022-12-08T03:08:38.866Z,3.92
2022-12-08T03:11:21.446Z,1.92
2022-12-08T03:13:58.271Z,2.60
2022-12-08T03:16:29.496Z,3.75
2022-12-08T03:19:15.483Z,3.08
2022-12-08T03:21:47.208Z,5.07
2022-12-08T03:24:17.630Z,5.20
2022-12-08T03:26:57.180Z,4.22
2022-12-08T03:29:24.755Z,5.00
2022-12-08T03:32:14.455Z,4.22
2022-12-08T03:34:44.290Z,5.15
2022-12-08T03:37:11.265Z,4.72
2022-12-08T03:39:38.377Z,4.43
2022-12-08T03:42:05.400Z,5.45
2022-12-08T03:44:32.410Z,5.07
2022-12-08T03:46:59.493Z,4.80
2022-12-08T03:49:26.536Z,4.75
2022-12-08T03:51:53.514Z,3.78
2022-12-08T03:54:20.500Z,4.60
2022-12-08T03:56:47.605Z,4.13
2022-12-08T03:59:14.604Z,3.97
2022-12-08T04:01:41.608Z,2.22
2022-12-08T04:04:08.713Z,4.93
2022-12-08T04:06:35.832Z,4.00
2022-12-08T04:09:02.908Z,2.10
2022-12-08T04:11:29.813Z,5.03
2022-12-08T04:13:56.897Z,2.63
2022-12-08T04:16:26.648Z,5.38
2022-12-08T04:18:54.342Z,2.97
2022-12-08T04:21:22.099Z,5.15
2022-12-08T04:23:49.277Z,4.80
2022-12-08T04:26:16.822Z,5.00
2022-12-08T04:28:44.592Z,5.45
2022-12-08T04:31:11.861Z,4.50
2022-12-08T04:33:38.894Z,3.95
2022-12-08T04:36:06.851Z,5.15
2022-12-08T04:38:34.567Z,2.05
2022-12-08T04:41:01.839Z,3.65
2022-12-08T04:43:28.944Z,4.13
2022-12-08T04:45:56.362Z,3.63
2022-12-08T04:48:23.808Z,5.65
2022-12-08T04:50:51.860Z,5.70
2022-12-08T04:53:21.008Z,3.35
2022-12-08T04:55:49.765Z,2.80
2022-12-08T04:58:18.970Z,5.03
2022-12-08T05:00:47.620Z,2.33
2022-12-08T05:03:15.908Z,4.78
2022-12-08T05:05:45.606Z,4.68
2022-12-08T05:08:12.703Z,2.60
2022-12-08T05:10:40.500Z,3.60
2022-12-08T05:13:07.766Z,3.00
2022-12-08T05:15:34.737Z,3.85
2022-12-08T05:18:01.717Z,3.63
2022-12-08T05:20:28.743Z,2.40
2022-12-08T05:22:59.347Z,2.67
2022-12-08T05:25:26.827Z,5.03
2022-12-08T05:28:01.739Z,3.08
2022-12-08T05:30:38.801Z,3.10
2022-12-08T05:33:06.202Z,3.28
2022-12-08T05:35:33.212Z,3.60
2022-12-08T05:38:00.323Z,4.30
2022-12-08T05:40:27.321Z,2.25
2022-12-08T05:42:54.292Z,4.65
2022-12-08T05:45:23.786Z,4.85
2022-12-08T05:47:50.681Z,3.80
2022-12-08T05:50:17.670Z,3.47
2022-12-08T05:52:44.587Z,5.35
2022-12-08T05:55:11.592Z,3.63
2022-12-08T05:57:38.614Z,4.18
2022-12-08T06:00:10.981Z,2.75
2022-12-08T06:02:45.436Z,3.50
2022-12-08T06:05:12.943Z,3.13
2022-12-08T06:07:41.387Z,3.97
2022-12-08T06:10:09.200Z,4.90
2022-12-08T06:15:05.940Z,4.05
2022-12-08T06:17:33.370Z,5.60
2022-12-08T06:20:01.165Z,3.45
2022-12-08T06:22:36.228Z,5.10
2022-12-08T06:25:07.296Z,4.40
2022-12-08T06:27:36.989Z,4.25
2022-12-08T06:30:07.292Z,5.47
2022-12-08T06:32:34.454Z,2.67
2022-12-08T06:35:01.709Z,4.40
2022-12-08T06:37:29.101Z,2.83
2022-12-08T06:39:56.934Z,4.70
2022-12-08T06:42:43.720Z,1.98
2022-12-08T06:45:22.123Z,3.28
2022-12-08T06:47:51.808Z,4.80
2022-12-08T06:50:18.839Z,4.55
2022-12-08T06:52:56.929Z,3.63
2022-12-08T06:58:32.958Z,4.35
2022-12-08T07:01:11.742Z,4.53
2022-12-08T07:03:40.004Z,2.78
2022-12-08T07:06:07.791Z,4.00
2022-12-08T07:08:35.820Z,3.17
2022-12-08T07:11:08.785Z,4.70
2022-12-08T07:13:36.348Z,4.55
2022-12-08T07:16:09.531Z,4.05
2022-12-08T07:18:38.016Z,4.43
2022-12-08T07:21:07.277Z,3.20
2022-12-08T07:23:34.997Z,3.88
2022-12-08T07:26:04.465Z,5.07
2022-12-08T07:28:37.008Z,3.65
2022-12-08T07:31:05.487Z,3.95
2022-12-08T07:33:33.700Z,2.72
2022-12-08T07:36:04.610Z,3.60
2022-12-08T07:38:31.994Z,4.63
2022-12-08T07:40:59.326Z,3.20
2022-12-08T07:43:30.672Z,5.10
2022-12-08T07:46:19.066Z,5.05
2022-12-08T07:49:00.437Z,4.10
2022-12-08T07:51:31.292Z,5.03
2022-12-08T07:53:59.094Z,3.38
2022-12-08T07:56:27.751Z,4.00
2022-12-08T07:58:55.908Z,4.50
2022-12-08T08:01:37.226Z,3.20
2022-12-08T08:04:05.937Z,4.55
2022-12-08T08:06:34.489Z,2.72
2022-12-08T08:09:01.543Z,3.70
2022-12-08T08:11:28.568Z,3.30
2022-12-08T08:13:56.847Z,4.38
2022-12-08T08:16:24.543Z,3.13
2022-12-08T08:18:52.238Z,4.93
2022-12-08T08:21:44.390Z,2.88
2022-12-08T08:24:09.671Z,4.78
2022-12-08T08:26:37.940Z,3.97
2022-12-08T08:29:05.019Z,4.60
2022-12-08T08:31:32.042Z,4.30
2022-12-08T08:34:00.769Z,3.42
2022-12-08T08:36:27.635Z,4.53
2022-12-08T08:38:54.643Z,5.25
2022-12-08T08:41:25.335Z,4.25
2022-12-08T08:44:13.688Z,3.13
2022-12-08T08:46:42.846Z,3.55
2022-12-08T08:49:13.871Z,5.22
2022-12-08T08:51:43.655Z,5.13
2022-12-08T08:54:11.486Z,4.95
2022-12-08T08:56:42.351Z,5.40
2022-12-08T08:59:15.769Z,5.20
2022-12-08T09:01:53.345Z,3.08
2022-12-08T09:04:31.704Z,5.07
2022-12-08T09:07:00.644Z,3.95
2022-12-08T09:09:57.045Z,3.53
2022-12-08T09:12:31.090Z,3.08
2022-12-08T09:15:01.892Z,3.38
2022-12-08T09:17:31.054Z,4.53
2022-12-08T09:19:58.075Z,6.15
2022-12-08T09:22:25.009Z,4.80
2022-12-08T09:24:53.516Z,7.10
2022-12-08T09:27:21.562Z,5.35
2022-12-08T09:29:48.673Z,4.22
2022-12-08T09:32:15.993Z,3.47
2022-12-08T09:34:47.610Z,4.72
2022-12-08T09:37:18.843Z,6.50
2022-12-08T09:39:48.702Z,5.68
2022-12-08T09:42:45.235Z,5.53
2022-12-08T09:45:14.246Z,4.18
2022-12-08T09:47:47.167Z,4.72
2022-12-08T09:50:28.082Z,5.38
2022-12-08T09:53:09.099Z,4.88
2022-12-08T09:55:42.682Z,5.10
2022-12-08T09:58:26.319Z,5.90
2022-12-08T10:00:53.896Z,5.22
2022-12-08T10:03:31.904Z,4.00
2022-12-08T10:06:13.818Z,4.65
2022-12-08T10:08:55.582Z,5.78
2022-12-08T10:11:53.568Z,4.35
2022-12-08T10:17:55.415Z,2.85
2022-12-08T10:23:39.684Z,6.10
2022-12-08T10:26:12.535Z,5.93
2022-12-08T10:28:44.751Z,5.38
2022-12-08T10:31:18.408Z,6.57
2022-12-08T10:33:48.469Z,4.95
2022-12-08T10:36:15.611Z,6.65
2022-12-08T10:38:42.554Z,7.03
2022-12-08T10:41:09.526Z,3.78
2022-12-08T10:43:44.203Z,7.40
2022-12-08T10:46:19.726Z,5.22
2022-12-08T10:49:13.484Z,4.50
2022-12-08T10:51:42.820Z,4.30
2022-12-08T10:54:38.461Z,5.25
2022-12-08T10:57:05.469Z,5.00
2022-12-08T10:59:33.852Z,2.25
2022-12-08T11:02:01.386Z,6.72
2022-12-08T11:04:36.935Z,7.63
2022-12-08T11:07:11.658Z,5.38
2022-12-08T11:09:49.006Z,3.45
2022-12-08T11:12:17.767Z,4.40
2022-12-08T11:14:44.760Z,3.22
2022-12-08T11:17:24.759Z,3.65
2022-12-08T11:22:27.865Z,5.60
2022-12-08T11:25:36.872Z,5.55
2022-12-08T11:28:05.628Z,5.90
2022-12-08T11:30:40.224Z,6.07
2022-12-08T11:33:14.330Z,6.78
2022-12-08T11:35:45.259Z,6.00
2022-12-08T11:38:23.108Z,5.82
2022-12-08T11:41:15.816Z,4.18
2022-12-08T11:44:06.222Z,4.70
2022-12-08T11:46:40.667Z,5.72
2022-12-08T11:49:13.781Z,4.28
2022-12-08T11:52:05.505Z,4.88
2022-12-08T11:54:35.374Z,3.70
2022-12-08T11:57:13.333Z,5.63
2022-12-08T11:59:46.283Z,7.10
2022-12-08T12:02:20.478Z,6.30
2022-12-08T12:04:58.156Z,5.72
2022-12-08T12:08:02.878Z,5.05
2022-12-08T12:10:29.836Z,4.55
2022-12-08T12:13:13.462Z,3.65
2022-12-08T12:16:04.633Z,6.05
2022-12-08T12:19:02.186Z,5.45
2022-12-08T12:21:33.882Z,7.25
2022-12-08T12:24:06.453Z,3.67
2022-12-08T12:26:37.763Z,4.97
2022-12-08T12:29:20.329Z,4.00
2022-12-08T12:31:52.149Z,4.97
2022-12-08T12:34:35.218Z,3.83
2022-12-08T12:37:13.136Z,5.25
2022-12-08T12:39:55.217Z,4.35
2022-12-08T12:42:42.625Z,6.43
2022-12-08T12:45:27.758Z,4.90
2022-12-08T12:47:58.963Z,3.95
2022-12-08T12:50:35.222Z,3.33
2022-12-08T12:53:18.014Z,4.88
2022-12-08T12:56:03.534Z,4.35
2022-12-08T12:58:30.699Z,5.05
2022-12-08T13:01:13.236Z,5.50
2022-12-08T13:03:47.553Z,5.80
2022-12-08T13:06:21.734Z,5.95
2022-12-08T13:08:56.384Z,5.18
2022-12-08T13:11:25.155Z,5.03
2022-12-08T13:14:03.948Z,3.05
2022-12-08T13:16:54.800Z,6.13
2022-12-08T13:19:22.795Z,5.65
2022-12-08T13:21:52.256Z,5.45
2022-12-08T13:27:06.798Z,2.92
2022-12-08T13:29:40.600Z,4.40
2022-12-08T13:32:07.720Z,6.38
2022-12-08T13:34:51.672Z,5.03
2022-12-08T13:37:50.746Z,5.32
2022-12-08T13:40:25.485Z,2.65
2022-12-08T13:43:19.683Z,4.43
2022-12-08T13:46:52.533Z,4.53
2022-12-08T13:57:48.573Z,3.22
2022-12-08T14:00:20.589Z,4.80
2022-12-08T14:02:50.219Z,4.65
2022-12-08T14:05:29.842Z,4.82
2022-12-08T14:08:51.036Z,3.90
2022-12-08T14:11:10.020Z,3.55
2022-12-08T14:13:37.011Z,5.95
2022-12-08T14:16:04.013Z,6.03
2022-12-08T14:18:32.063Z,5.20
2022-12-08T14:21:21.145Z,4.78
2022-12-08T14:23:48.831Z,3.78
2022-12-08T14:26:15.985Z,5.25
2022-12-08T14:28:45.202Z,5.63
2022-12-08T14:31:16.687Z,5.75
2022-12-08T14:33:43.803Z,4.88
2022-12-08T14:36:12.551Z,6.72
2022-12-08T14:38:39.638Z,4.32
2022-12-08T14:41:16.780Z,4.53
2022-12-08T14:43:44.243Z,6.20
2022-12-08T14:46:22.583Z,2.95
2022-12-08T14:48:49.816Z,6.85
2022-12-08T14:51:19.442Z,6.80
2022-12-08T14:53:52.455Z,4.43
2022-12-08T14:56:32.158Z,4.35
2022-12-08T14:59:17.657Z,3.60
2022-12-08T15:01:46.649Z,4.10
2022-12-08T15:04:13.833Z,6.82
2022-12-08T15:06:53.795Z,3.25
2022-12-08T15:09:41.658Z,6.43
2022-12-08T15:12:12.109Z,4.30
2022-12-08T15:15:01.572Z,5.13
2022-12-08T15:17:41.196Z,7.30
2022-12-08T15:20:34.551Z,4.10
2022-12-08T15:23:04.170Z,7.03
2022-12-08T15:25:32.045Z,12.13
2022-12-08T15:28:04.951Z,7.78
2022-12-08T15:30:34.822Z,4.57
2022-12-08T15:33:02.215Z,4.60
2022-12-08T15:35:35.963Z,6.05
2022-12-08T15:38:20.745Z,7.63
2022-12-08T15:40:48.711Z,4.38
2022-12-08T15:43:19.465Z,6.35
2022-12-08T15:45:59.062Z,7.28
2022-12-08T15:48:30.794Z,5.63
2022-12-08T15:51:00.733Z,7.45
2022-12-08T15:53:30.514Z,5.65
2022-12-08T15:56:26.525Z,5.72
2022-12-08T15:58:55.231Z,6.38
2022-12-08T16:01:24.215Z,8.63
2022-12-08T16:09:36.322Z,9.98
2022-12-08T16:12:22.411Z,10.20
2022-12-08T16:17:37.816Z,7.03
2022-12-08T16:20:16.896Z,12.80
2022-12-08T16:22:59.253Z,8.35
2022-12-08T16:26:09.081Z,7.15
2022-12-08T16:28:53.559Z,7.85
2022-12-08T16:31:20.059Z,9.55
2022-12-08T16:33:53.067Z,12.82
2022-12-08T16:36:20.398Z,12.15
2022-12-08T16:38:47.499Z,12.88
2022-12-08T16:41:34.942Z,10.02
2022-12-08T16:44:04.674Z,7.13
2022-12-08T16:46:39.880Z,8.57
2022-12-08T16:49:09.375Z,7.53
2022-12-08T16:51:36.508Z,5.78
2022-12-08T16:54:03.682Z,6.45
2022-12-08T16:56:33.821Z,3.83
2022-12-08T17:01:28.846Z,8.48
2022-12-08T17:04:29.175Z,7.72
2022-12-08T17:06:43.034Z,6.10
2022-12-08T17:09:10.046Z,5.28
2022-12-08T17:11:43.019Z,7.25
2022-12-08T17:14:12.456Z,7.03
2022-12-08T17:16:39.768Z,6.43
2022-12-08T17:19:06.953Z,9.27
2022-12-08T17:21:34.058Z,6.25
2022-12-08T17:24:01.224Z,10.07
2022-12-08T17:26:28.407Z,4.05
2022-12-08T17:29:02.747Z,7.72
2022-12-08T17:31:32.128Z,7.03
2022-12-08T17:34:12.789Z,9.48
2022-12-08T17:36:42.000Z,8.23
2022-12-08T17:39:13.430Z,7.18
2022-12-08T17:41:43.983Z,5.40
2022-12-08T17:44:17.383Z,7.45
2022-12-08T17:46:50.684Z,9.07
2022-12-08T17:49:23.584Z,8.85
2022-12-08T17:51:54.119Z,10.73
2022-12-08T17:54:21.932Z,9.55
2022-12-08T17:56:49.039Z,10.25
2022-12-08T17:59:16.309Z,9.32
2022-12-08T18:01:43.963Z,4.65
2022-12-08T18:04:12.438Z,8.68
2022-12-08T18:06:40.045Z,10.80
2022-12-08T18:09:08.065Z,10.80
2022-12-08T18:11:36.045Z,6.13
2022-12-08T18:14:09.995Z,11.07
2022-12-08T18:16:39.728Z,7.30
2022-12-08T18:19:08.201Z,10.02
2022-12-08T18:21:36.736Z,10.30
2022-12-08T18:24:04.684Z,7.20
2022-12-08T18:26:32.455Z,11.70
2022-12-08T18:29:00.453Z,8.25
2022-12-08T18:31:27.853Z,9.32
2022-12-08T18:33:55.154Z,7.75
2022-12-08T18:36:24.751Z,16.95
2022-12-08T18:38:52.909Z,12.20
2022-12-08T18:41:26.388Z,8.52
2022-12-08T18:43:55.385Z,11.60
2022-12-08T18:46:25.674Z,8.27
2022-12-08T18:48:53.139Z,6.50
2022-12-08T18:51:22.873Z,8.43
2022-12-08T18:53:50.638Z,9.00
2022-12-08T18:56:26.936Z,12.50
2022-12-08T18:59:01.329Z,5.55
2022-12-08T19:01:30.359Z,8.02
2022-12-08T19:04:26.588Z,10.60
2022-12-08T19:06:46.629Z,9.00
2022-12-08T19:09:15.419Z,7.47
2022-12-08T19:11:43.244Z,11.27
2022-12-08T19:14:12.053Z,14.10
2022-12-08T19:16:39.335Z,6.85
2022-12-08T19:19:06.427Z,10.70
2022-12-08T19:21:34.158Z,11.10
2022-12-08T19:24:01.840Z,9.20
2022-12-08T19:26:29.137Z,12.02
2022-12-08T19:28:57.684Z,9.25
2022-12-08T19:31:24.990Z,7.47
2022-12-08T19:33:52.321Z,9.05
2022-12-08T19:36:22.446Z,12.65
2022-12-08T19:39:09.134Z,6.03
2022-12-08T19:41:56.145Z,12.80
2022-12-08T19:44:47.514Z,8.48
2022-12-08T19:47:15.463Z,12.43
2022-12-08T19:49:42.749Z,11.35
2022-12-08T19:52:10.118Z,9.00
2022-12-08T19:54:37.150Z,10.73
2022-12-08T19:57:04.363Z,14.48
2022-12-08T19:59:31.671Z,14.05
2022-12-08T20:01:59.065Z,12.23
2022-12-08T20:04:27.690Z,9.93
2022-12-08T20:06:56.626Z,6.93
2022-12-08T20:09:24.819Z,10.15
2022-12-08T20:11:54.784Z,14.80
2022-12-08T20:14:23.381Z,7.10
2022-12-08T20:16:51.104Z,10.80
2022-12-08T20:19:18.648Z,9.07
2022-12-08T20:21:46.007Z,9.00
2022-12-08T20:24:26.646Z,10.27
2022-12-08T20:26:56.421Z,8.07
2022-12-08T20:29:23.403Z,8.60
2022-12-08T20:31:50.559Z,7.57
2022-12-08T20:34:19.184Z,8.73
2022-12-08T20:36:46.876Z,7.97
2022-12-08T20:39:16.963Z,6.97
2022-12-08T20:41:45.502Z,14.18
2022-12-08T20:44:12.875Z,10.88
2022-12-08T20:46:42.763Z,6.75
2022-12-08T20:49:13.664Z,9.02
2022-12-08T20:51:41.839Z,12.73
2022-12-08T20:54:10.205Z,6.13
2022-12-08T20:56:37.362Z,8.07
2022-12-08T20:59:04.361Z,10.77
2022-12-08T21:01:31.795Z,10.80
2022-12-08T21:03:59.996Z,14.23
2022-12-08T21:06:38.850Z,15.90
2022-12-08T21:09:07.333Z,8.40
2022-12-08T21:11:35.893Z,10.48
2022-12-08T21:14:03.065Z,9.05
2022-12-08T21:19:31.262Z,9.65
2022-12-08T21:21:58.585Z,12.00
2022-12-08T21:24:30.313Z,7.78
2022-12-08T21:27:00.813Z,9.20
2022-12-08T21:29:27.801Z,13.45
2022-12-08T21:31:57.370Z,12.30
2022-12-08T21:34:25.782Z,8.27
2022-12-08T21:36:53.293Z,11.98
2022-12-08T21:39:20.759Z,12.63
2022-12-08T21:42:06.284Z,13.27
2022-12-08T21:44:36.608Z,8.32
2022-12-08T21:47:05.989Z,9.77
2022-12-08T21:49:33.352Z,16.25
2022-12-08T21:52:00.590Z,14.25
2022-12-08T21:54:27.768Z,10.93
2022-12-08T21:56:54.999Z,11.05
2022-12-08T21:59:22.018Z,12.38
2022-12-08T22:01:49.306Z,10.80
2022-12-08T22:04:18.990Z,14.68
2022-12-08T22:06:46.342Z,16.58
2022-12-08T22:09:15.251Z,8.15
2022-12-08T22:11:43.954Z,13.65
2022-12-08T22:14:14.913Z,14.02
2022-12-08T22:16:43.464Z,14.82
2022-12-08T22:19:11.168Z,9.88
2022-12-08T22:21:38.782Z,10.60
2022-12-08T22:24:06.383Z,10.40
2022-12-08T22:26:34.081Z,8.20
2022-12-08T22:29:01.718Z,9.23
2022-12-08T22:31:28.875Z,9.18
2022-12-08T22:34:02.543Z,10.20
2022-12-08T22:36:30.454Z,13.75
2022-12-08T22:38:57.613Z,10.82
2022-12-08T22:41:25.056Z,13.43
2022-12-08T22:43:52.733Z,6.40
2022-12-08T22:46:26.685Z,14.95
2022-12-08T22:48:55.229Z,10.35
2022-12-08T22:51:22.521Z,11.52
2022-12-08T22:53:50.189Z,11.70
2022-12-08T22:56:18.700Z,11.25
2022-12-08T22:58:46.064Z,9.82
2022-12-08T23:01:29.512Z,11.48
2022-12-08T23:03:58.156Z,8.88
2022-12-08T23:06:27.136Z,13.68
2022-12-08T23:08:54.721Z,14.32
2022-12-08T23:11:25.241Z,15.18
2022-12-08T23:13:53.276Z,14.93
2022-12-08T23:16:32.104Z,14.55
2022-12-08T23:19:05.585Z,15.50
2022-12-08T23:21:44.216Z,10.57
2022-12-08T23:24:13.028Z,16.17
2022-12-08T23:26:40.233Z,12.45
2022-12-08T23:29:10.529Z,10.18
2022-12-08T23:32:07.199Z,10.73
2022-12-08T23:34:34.880Z,15.27
2022-12-08T23:37:02.210Z,13.70
2022-12-08T23:42:31.019Z,8.13
2022-12-08T23:44:58.416Z,7.00
2022-12-08T23:47:25.656Z,9.77
2022-12-08T23:49:52.965Z,12.68
2022-12-08T23:52:19.943Z,10.23
2022-12-08T23:54:49.485Z,14.73
2022-12-08T23:57:17.465Z,9.65
2022-12-08T23:59:45.026Z,13.65
